Chardzhou, Turkmenabat Airport (UTAV)

NameTurkmenabat Airport
CityChardzhou
CountryTurkmenistan
ICAOUTAV
IATACRZ
Altitude192 m
CoordinatesGoogle Map
Live Air TrafficLiveATC.net
METARUTAV 261600Z 04004KT CAVOK 35/05 Q1005 NOSIG
2019-06-26 16:00:00 Wind: North-Northeast (40°) 2.06 m/s - Visibility: > 10000 m - Weather: CAVOK - Temperature: 35 °C - Dew point: 5 °C - Humidity: 15.3% - Pressure: 1005 hPa

Sorry, no flights used the airport in this database.